Time;durP1;ratioP1;P1;durP2;ratioP2;P2;SDS_P1;SDS_P2;PMS_P1;PMS_P2;Temp;Humidity;BMP_temperature;BMP_pressure;BME280_temperature;BME280_humidity;BME280_pressure;Samples;Min_cycle;Max_cycle;Signal;HPM_P1;HPM_P2
2022/03/04 00:00:56;;;;;;;19.95;10.25;;;;;;;;;;5030787;28;20588;-74
2022/03/04 00:03:23;;;;;;;25.33;12.23;;;;;;;;;;5028351;28;20139;-73
2022/03/04 00:05:51;;;;;;;25.20;12.23;;;;;;;;;;5030485;28;20044;-74
2022/03/04 00:08:19;;;;;;;21.63;10.73;;;;;;;;;;5032625;28;20342;-73
2022/03/04 00:10:48;;;;;;;23.58;12.05;;;;;;;;;;5026904;28;20061;-73
2022/03/04 00:13:15;;;;;;;25.20;12.85;;;;;;;;;;5030608;28;20052;-73
2022/03/04 00:15:43;;;;;;;21.48;10.95;;;;;;;;;;5032435;28;20157;-74
2022/03/04 00:18:10;;;;;;;21.67;11.70;;;;;;;;;;5036440;28;20144;-74
2022/03/04 00:20:41;;;;;;;20.85;11.32;;;;;;;;;;5036791;28;20130;-74
2022/03/04 00:23:09;;;;;;;22.40;11.13;;;;;;;;;;5030591;28;20509;-74
2022/03/04 00:25:36;;;;;;;21.40;10.65;;;;;;;;;;5032963;28;21540;-74
2022/03/04 00:28:06;;;;;;;23.02;11.82;;;;;;;;;;5029428;28;20065;-74
2022/03/04 00:30:33;;;;;;;21.17;11.20;;;;;;;;;;5031758;28;20053;-74
2022/03/04 00:33:03;;;;;;;26.50;12.75;;;;;;;;;;5032487;28;20061;-74
2022/03/04 00:35:31;;;;;;;23.92;13.25;;;;;;;;;;5029868;28;20817;-74
2022/03/04 00:37:58;;;;;;;21.33;11.18;;;;;;;;;;5029483;28;20113;-74
2022/03/04 00:40:26;;;;;;;21.10;12.02;;;;;;;;;;5032385;28;20131;-73
2022/03/04 00:42:54;;;;;;;23.17;12.13;;;;;;;;;;5029240;28;20041;-77
2022/03/04 00:45:23;;;;;;;25.25;12.35;;;;;;;;;;5029630;28;20041;-76
2022/03/04 00:47:50;;;;;;;25.23;12.38;;;;;;;;;;5032167;28;20068;-75
2022/03/04 00:50:18;;;;;;;22.08;10.75;;;;;;;;;;5031878;28;20045;-76
2022/03/04 00:52:46;;;;;;;25.73;12.80;;;;;;;;;;5029179;28;20037;-77
2022/03/04 00:55:13;;;;;;;24.27;11.63;;;;;;;;;;5032362;28;20564;-76
2022/03/04 00:57:41;;;;;;;23.52;12.32;;;;;;;;;;5031173;28;20056;-76
2022/03/04 01:00:09;;;;;;;25.48;12.85;;;;;;;;;;5034938;28;20137;-78
2022/03/04 01:02:38;;;;;;;22.88;12.38;;;;;;;;;;5027789;28;20158;-76
2022/03/04 01:05:06;;;;;;;24.10;12.60;;;;;;;;;;5026574;28;20061;-77
2022/03/04 01:07:34;;;;;;;26.27;12.20;;;;;;;;;;5031211;28;20568;-77
2022/03/04 01:10:02;;;;;;;23.23;12.27;;;;;;;;;;5029720;28;20717;-75
2022/03/04 01:12:30;;;;;;;25.52;11.52;;;;;;;;;;5034045;28;20114;-72
2022/03/04 01:14:57;;;;;;;24.30;12.77;;;;;;;;;;5029593;28;20049;-73
2022/03/04 01:17:25;;;;;;;25.08;12.00;;;;;;;;;;5028632;28;20612;-73
2022/03/04 01:19:54;;;;;;;26.15;13.27;;;;;;;;;;5030546;28;20140;-73
2022/03/04 01:22:22;;;;;;;21.67;11.75;;;;;;;;;;5034238;28;20509;-73
2022/03/04 01:24:49;;;;;;;23.33;12.50;;;;;;;;;;5032405;28;20053;-73
2022/03/04 01:27:17;;;;;;;25.15;11.48;;;;;;;;;;5033561;28;20079;-73
2022/03/04 01:29:45;;;;;;;25.63;13.63;;;;;;;;;;5031168;28;20052;-73
2022/03/04 01:32:13;;;;;;;29.10;12.88;;;;;;;;;;5034476;28;20045;-74
2022/03/04 01:34:40;;;;;;;27.05;13.25;;;;;;;;;;5031352;28;20714;-78
2022/03/04 01:37:10;;;;;;;23.83;12.77;;;;;;;;;;5030917;28;20126;-76
2022/03/04 01:39:37;;;;;;;24.13;13.30;;;;;;;;;;5031541;28;20044;-76
2022/03/04 01:42:05;;;;;;;25.65;13.10;;;;;;;;;;5034342;28;20167;-75
2022/03/04 01:44:33;;;;;;;23.02;12.30;;;;;;;;;;5031922;28;20053;-76
2022/03/04 01:47:01;;;;;;;27.17;13.40;;;;;;;;;;5027330;28;20125;-76
2022/03/04 01:49:29;;;;;;;25.20;12.82;;;;;;;;;;5032234;28;20044;-76
2022/03/04 01:51:56;;;;;;;22.98;12.52;;;;;;;;;;5029670;28;20045;-75
2022/03/04 01:54:26;;;;;;;23.90;12.15;;;;;;;;;;5031969;28;20037;-76
2022/03/04 01:56:53;;;;;;;28.45;13.38;;;;;;;;;;5032936;28;20488;-77
2022/03/04 01:59:21;;;;;;;29.23;13.77;;;;;;;;;;5031332;28;20131;-77
2022/03/04 02:01:48;;;;;;;24.95;12.90;;;;;;;;;;5033344;28;20191;-75
2022/03/04 02:04:16;;;;;;;29.55;13.23;;;;;;;;;;5032139;28;20059;-76
2022/03/04 02:06:44;;;;;;;26.80;13.23;;;;;;;;;;5029674;28;20049;-77
2022/03/04 02:09:12;;;;;;;24.80;11.82;;;;;;;;;;5030359;28;20060;-76
2022/03/04 02:11:43;;;;;;;26.98;13.43;;;;;;;;;;5024199;28;20684;-76
2022/03/04 02:14:11;;;;;;;25.98;13.90;;;;;;;;;;5029650;28;20114;-76
2022/03/04 02:16:41;;;;;;;25.05;13.02;;;;;;;;;;5032260;28;20203;-76
2022/03/04 02:19:11;;;;;;;24.88;12.98;;;;;;;;;;5032760;28;20052;-76
2022/03/04 02:21:42;;;;;;;27.23;12.55;;;;;;;;;;5029154;28;20985;-76
2022/03/04 02:24:12;;;;;;;30.25;13.73;;;;;;;;;;5032587;28;20084;-76
2022/03/04 02:26:39;;;;;;;27.73;12.93;;;;;;;;;;5028873;28;20064;-76
2022/03/04 02:29:07;;;;;;;22.98;12.50;;;;;;;;;;5031702;28;20632;-76
2022/03/04 02:31:35;;;;;;;30.65;13.30;;;;;;;;;;5027272;28;20049;-76
2022/03/04 02:34:03;;;;;;;27.00;13.05;;;;;;;;;;5031119;28;20064;-76
2022/03/04 02:36:30;;;;;;;27.52;13.35;;;;;;;;;;5032172;28;20055;-76
2022/03/04 02:39:01;;;;;;;27.95;13.57;;;;;;;;;;5029733;28;20057;-77
2022/03/04 02:41:30;;;;;;;26.65;12.85;;;;;;;;;;5026467;28;20051;-76
2022/03/04 02:43:57;;;;;;;24.75;12.80;;;;;;;;;;5029130;28;20133;-78
2022/03/04 02:46:25;;;;;;;25.20;12.50;;;;;;;;;;5026582;28;20094;-78
2022/03/04 02:48:53;;;;;;;23.65;13.68;;;;;;;;;;5029159;28;20053;-77
2022/03/04 02:51:21;;;;;;;27.65;14.10;;;;;;;;;;5029404;28;20072;-77
2022/03/04 02:53:48;;;;;;;26.35;13.07;;;;;;;;;;5029412;28;20045;-76
2022/03/04 02:56:16;;;;;;;29.38;13.70;;;;;;;;;;5030118;28;20067;-77
2022/03/04 02:58:48;;;;;;;24.55;13.00;;;;;;;;;;5030927;28;20049;-75
2022/03/04 03:01:15;;;;;;;26.83;12.27;;;;;;;;;;5031233;28;20502;-76
2022/03/04 03:03:43;;;;;;;26.70;13.25;;;;;;;;;;5027866;28;20528;-75
2022/03/04 03:06:11;;;;;;;28.98;13.15;;;;;;;;;;5026530;28;20057;-76
2022/03/04 03:08:39;;;;;;;23.58;12.00;;;;;;;;;;5033213;28;20745;-76
2022/03/04 03:11:07;;;;;;;28.88;12.93;;;;;;;;;;5030399;28;20135;-75
2022/03/04 03:13:34;;;;;;;31.92;12.98;;;;;;;;;;5032972;28;20496;-76
2022/03/04 03:16:04;;;;;;;27.80;12.82;;;;;;;;;;5029470;28;20548;-75
2022/03/04 03:18:31;;;;;;;25.98;13.23;;;;;;;;;;5024150;28;20041;-75
2022/03/04 03:21:00;;;;;;;23.88;11.70;;;;;;;;;;5032255;28;20045;-76
2022/03/04 03:23:28;;;;;;;24.70;13.48;;;;;;;;;;5032523;28;20139;-76
2022/03/04 03:25:55;;;;;;;27.90;12.75;;;;;;;;;;5029644;28;20053;-75
2022/03/04 03:28:23;;;;;;;26.75;12.63;;;;;;;;;;5026069;28;20132;-76
2022/03/04 03:30:57;;;;;;;25.48;12.98;;;;;;;;;;5030038;28;20079;-75
2022/03/04 03:33:26;;;;;;;29.05;13.18;;;;;;;;;;5032545;28;20300;-73
2022/03/04 03:35:56;;;;;;;27.77;14.68;;;;;;;;;;5028697;28;20889;-73
2022/03/04 03:38:24;;;;;;;29.40;13.70;;;;;;;;;;5026770;28;20061;-73
2022/03/04 03:40:52;;;;;;;25.02;12.65;;;;;;;;;;5026959;28;20065;-73
2022/03/04 03:43:39;;;;;;;31.92;15.48;;;;;;;;;;5027983;28;20094;-73
2022/03/04 03:46:06;;;;;;;26.88;13.77;;;;;;;;;;5026479;28;20111;-73
2022/03/04 03:49:00;;;;;;;27.75;13.32;;;;;;;;;;5034703;28;21616;-75
2022/03/04 03:51:28;;;;;;;28.02;13.23;;;;;;;;;;5029863;28;20060;-75
2022/03/04 03:53:56;;;;;;;30.83;16.45;;;;;;;;;;5034747;28;20148;-75
2022/03/04 03:56:23;;;;;;;30.27;14.15;;;;;;;;;;5034337;28;20151;-75
2022/03/04 03:58:51;;;;;;;29.60;14.52;;;;;;;;;;5033720;28;20117;-75
2022/03/04 04:01:19;;;;;;;27.63;13.60;;;;;;;;;;5032012;28;20094;-75
2022/03/04 04:03:48;;;;;;;27.77;13.15;;;;;;;;;;5032857;28;20140;-75
2022/03/04 04:06:17;;;;;;;28.48;14.52;;;;;;;;;;5030890;28;20148;-75
2022/03/04 04:08:46;;;;;;;29.63;14.18;;;;;;;;;;5029201;28;20062;-75
2022/03/04 04:11:13;;;;;;;26.52;13.48;;;;;;;;;;5031629;28;20092;-72
2022/03/04 04:13:41;;;;;;;30.85;14.25;;;;;;;;;;5031799;28;20045;-73
2022/03/04 04:16:09;;;;;;;25.23;14.25;;;;;;;;;;5033363;28;20045;-73
2022/03/04 04:18:37;;;;;;;27.83;14.23;;;;;;;;;;5029443;28;20587;-73
2022/03/04 04:21:06;;;;;;;28.05;13.93;;;;;;;;;;5031674;28;20045;-74
2022/03/04 04:23:35;;;;;;;27.45;12.77;;;;;;;;;;5032448;28;20041;-74
2022/03/04 04:26:05;;;;;;;28.00;13.75;;;;;;;;;;5032319;28;20108;-74
2022/03/04 04:28:33;;;;;;;31.02;13.77;;;;;;;;;;5037592;28;20072;-75
2022/03/04 04:31:02;;;;;;;25.42;13.95;;;;;;;;;;5031270;28;20140;-75
2022/03/04 04:33:31;;;;;;;30.88;13.43;;;;;;;;;;5029431;28;20207;-74
2022/03/04 04:35:58;;;;;;;29.30;15.32;;;;;;;;;;5032665;28;20657;-75
2022/03/04 04:38:26;;;;;;;28.80;14.18;;;;;;;;;;5030085;28;20061;-75
2022/03/04 04:40:55;;;;;;;26.90;13.43;;;;;;;;;;5031070;28;20115;-75
2022/03/04 04:43:23;;;;;;;31.55;15.25;;;;;;;;;;5030709;28;20502;-75
2022/03/04 04:45:51;;;;;;;30.65;12.68;;;;;;;;;;5036561;28;20144;-74
2022/03/04 04:48:26;;;;;;;25.58;12.60;;;;;;;;;;5033654;28;20060;-75
2022/03/04 04:50:53;;;;;;;29.65;15.10;;;;;;;;;;5032144;28;20053;-75
2022/03/04 04:53:21;;;;;;;30.83;14.30;;;;;;;;;;5028497;28;20053;-75
2022/03/04 04:55:49;;;;;;;30.27;12.85;;;;;;;;;;5033574;28;20564;-75
2022/03/04 04:58:18;;;;;;;32.30;15.63;;;;;;;;;;5033328;28;20052;-74
2022/03/04 05:00:53;;;;;;;26.65;13.93;;;;;;;;;;5030837;28;20111;-73
2022/03/04 05:03:21;;;;;;;29.10;13.40;;;;;;;;;;5028520;28;20049;-75
2022/03/04 05:05:49;;;;;;;32.95;15.85;;;;;;;;;;5031874;28;20045;-76
2022/03/04 05:08:17;;;;;;;23.92;12.93;;;;;;;;;;5032375;28;20098;-75
2022/03/04 05:11:10;;;;;;;32.05;14.25;;;;;;;;;;5033358;28;20044;-76
2022/03/04 05:13:40;;;;;;;29.58;14.77;;;;;;;;;;5034119;28;20043;-76
2022/03/04 05:16:07;;;;;;;33.03;15.35;;;;;;;;;;5029612;28;20071;-75
2022/03/04 05:18:41;;;;;;;23.38;12.98;;;;;;;;;;5031486;28;20045;-74
2022/03/04 05:21:08;;;;;;;27.85;13.93;;;;;;;;;;5029400;28;20041;-74
2022/03/04 05:26:22;;;;;;;24.63;13.38;;;;;;;;;;5033660;28;20064;-74
2022/03/04 05:28:51;;;;;;;29.25;13.77;;;;;;;;;;5033281;28;20176;-74
2022/03/04 05:31:19;;;;;;;27.90;14.15;;;;;;;;;;5032023;28;20053;-74
2022/03/04 05:33:47;;;;;;;27.15;14.38;;;;;;;;;;5030136;28;20307;-74
2022/03/04 05:36:15;;;;;;;35.85;15.30;;;;;;;;;;5030121;28;20052;-75
2022/03/04 05:38:42;;;;;;;30.95;16.27;;;;;;;;;;5030129;28;20045;-75
2022/03/04 05:41:10;;;;;;;29.80;15.55;;;;;;;;;;5030757;28;20040;-74
2022/03/04 05:43:38;;;;;;;32.53;14.57;;;;;;;;;;5031065;28;20136;-75
2022/03/04 05:46:08;;;;;;;33.65;15.70;;;;;;;;;;5031807;28;20065;-74
2022/03/04 05:48:35;;;;;;;33.00;16.65;;;;;;;;;;5032090;28;20083;-75
2022/03/04 05:51:04;;;;;;;27.58;14.30;;;;;;;;;;5028825;28;20060;-75
2022/03/04 05:53:32;;;;;;;29.35;14.75;;;;;;;;;;5029026;28;20049;-75
2022/03/04 05:56:00;;;;;;;33.50;13.95;;;;;;;;;;5030067;28;20345;-75
2022/03/04 05:58:31;;;;;;;31.17;14.35;;;;;;;;;;5031729;28;20052;-77
2022/03/04 06:00:59;;;;;;;32.25;15.15;;;;;;;;;;5032757;28;20060;-76
2022/03/04 06:03:29;;;;;;;32.75;15.30;;;;;;;;;;5032177;28;20045;-74
2022/03/04 06:05:57;;;;;;;28.83;14.48;;;;;;;;;;5034235;28;20136;-72
2022/03/04 06:08:25;;;;;;;29.88;14.88;;;;;;;;;;5032862;28;20052;-75
2022/03/04 06:10:53;;;;;;;30.25;14.02;;;;;;;;;;5027428;28;20203;-75
2022/03/04 06:13:21;;;;;;;34.22;15.95;;;;;;;;;;5031217;28;20048;-74
2022/03/04 06:15:49;;;;;;;31.60;14.30;;;;;;;;;;5029396;28;20053;-75
2022/03/04 06:18:16;;;;;;;33.10;14.95;;;;;;;;;;5028275;28;20063;-75
2022/03/04 06:20:46;;;;;;;32.03;15.80;;;;;;;;;;5032518;28;20079;-74
2022/03/04 06:23:14;;;;;;;32.03;15.68;;;;;;;;;;5031200;28;20045;-77
2022/03/04 06:25:42;;;;;;;29.30;14.48;;;;;;;;;;5034311;28;20047;-75
2022/03/04 06:28:09;;;;;;;28.75;13.55;;;;;;;;;;5032387;28;20508;-74
2022/03/04 06:30:37;;;;;;;29.13;14.55;;;;;;;;;;5030065;28;20072;-75
2022/03/04 06:35:53;;;;;;;31.50;16.52;;;;;;;;;;5029864;28;20051;-74
2022/03/04 06:38:21;;;;;;;36.63;16.27;;;;;;;;;;5035979;28;20085;-74
2022/03/04 06:41:14;;;;;;;32.22;14.68;;;;;;;;;;5032504;28;20075;-74
2022/03/04 06:43:43;;;;;;;33.38;15.82;;;;;;;;;;5034033;28;20045;-75
2022/03/04 06:46:13;;;;;;;35.22;16.20;;;;;;;;;;5031800;28;20048;-76
2022/03/04 06:48:42;;;;;;;36.63;17.00;;;;;;;;;;5032530;28;20072;-76
2022/03/04 06:51:11;;;;;;;32.00;15.15;;;;;;;;;;5027345;28;20076;-74
2022/03/04 06:53:39;;;;;;;30.70;14.68;;;;;;;;;;5031435;28;20522;-75
2022/03/04 06:56:07;;;;;;;33.92;16.70;;;;;;;;;;5028781;28;20132;-74
2022/03/04 06:58:35;;;;;;;35.78;16.20;;;;;;;;;;5032565;28;20140;-74
2022/03/04 07:01:05;;;;;;;31.85;15.93;;;;;;;;;;5030318;28;20737;-76
2022/03/04 07:03:57;;;;;;;34.15;14.05;;;;;;;;;;5030589;28;20898;-74
2022/03/04 07:06:26;;;;;;;33.80;14.27;;;;;;;;;;5031190;28;20064;-75
2022/03/04 07:08:54;;;;;;;29.42;14.93;;;;;;;;;;5029385;28;20122;-75
2022/03/04 07:11:27;;;;;;;35.28;16.05;;;;;;;;;;5025475;28;20134;-75
2022/03/04 07:13:55;;;;;;;36.53;17.13;;;;;;;;;;5032196;28;20111;-73
2022/03/04 07:16:23;;;;;;;35.80;16.88;;;;;;;;;;5028905;28;20059;-74
2022/03/04 07:18:51;;;;;;;31.55;16.23;;;;;;;;;;5032341;28;20163;-74
2022/03/04 07:21:18;;;;;;;28.60;14.35;;;;;;;;;;5029205;28;20048;-75
2022/03/04 07:23:47;;;;;;;36.60;16.98;;;;;;;;;;5030153;28;20065;-73
2022/03/04 07:26:15;;;;;;;35.20;16.92;;;;;;;;;;5028857;28;20055;-74
2022/03/04 07:28:42;;;;;;;36.25;16.08;;;;;;;;;;5029906;28;20134;-75
2022/03/04 07:31:10;;;;;;;37.00;16.85;;;;;;;;;;5025422;28;20443;-74
2022/03/04 07:33:38;;;;;;;34.25;16.15;;;;;;;;;;5033673;28;20134;-75
2022/03/04 07:36:06;;;;;;;25.55;13.77;;;;;;;;;;5028185;28;20064;-75
2022/03/04 07:38:33;;;;;;;31.92;16.60;;;;;;;;;;5030480;28;20144;-75
2022/03/04 07:41:03;;;;;;;36.15;16.45;;;;;;;;;;5028057;28;20131;-75
2022/03/04 07:43:54;;;;;;;30.92;15.57;;;;;;;;;;5030772;28;20648;-74
2022/03/04 07:46:23;;;;;;;30.10;14.80;;;;;;;;;;5026474;28;20041;-74
2022/03/04 07:48:51;;;;;;;34.10;16.85;;;;;;;;;;5031629;28;20095;-75
2022/03/04 07:51:18;;;;;;;39.42;17.27;;;;;;;;;;5030597;28;20620;-75
2022/03/04 07:53:46;;;;;;;40.53;18.45;;;;;;;;;;5027156;28;20060;-76
2022/03/04 07:56:15;;;;;;;34.15;17.08;;;;;;;;;;5029439;28;20056;-76
2022/03/04 07:58:42;;;;;;;33.55;16.88;;;;;;;;;;5030801;28;20099;-76
2022/03/04 08:01:10;;;;;;;40.75;18.17;;;;;;;;;;5026472;28;20072;-75
2022/03/04 08:03:53;;;;;;;27.27;15.17;;;;;;;;;;5025525;28;20123;-74
2022/03/04 08:06:21;;;;;;;33.38;16.85;;;;;;;;;;5028611;28;20044;-74
2022/03/04 08:08:49;;;;;;;34.58;16.90;;;;;;;;;;5030149;28;20049;-74
2022/03/04 08:11:18;;;;;;;33.17;16.63;;;;;;;;;;5031913;28;20045;-75
2022/03/04 08:13:46;;;;;;;33.15;16.95;;;;;;;;;;5033129;28;20057;-74
2022/03/04 08:16:13;;;;;;;40.17;20.08;;;;;;;;;;5028688;28;20151;-74
2022/03/04 08:18:41;;;;;;;36.50;17.80;;;;;;;;;;5026867;28;20513;-75
2022/03/04 08:21:11;;;;;;;36.72;19.05;;;;;;;;;;5027212;28;20075;-75
2022/03/04 08:23:38;;;;;;;32.80;15.98;;;;;;;;;;5030564;28;20147;-75
2022/03/04 08:26:06;;;;;;;35.83;15.60;;;;;;;;;;5033853;28;20064;-74
2022/03/04 08:28:35;;;;;;;39.78;19.33;;;;;;;;;;5031742;28;20045;-74
2022/03/04 08:31:10;;;;;;;35.42;16.10;;;;;;;;;;5029219;28;20057;-77
2022/03/04 08:33:39;;;;;;;34.35;17.90;;;;;;;;;;5028097;28;20080;-76
2022/03/04 08:36:07;;;;;;;31.23;17.05;;;;;;;;;;5035468;28;20071;-74
2022/03/04 08:38:59;;;;;;;33.72;17.45;;;;;;;;;;5036640;28;20064;-76
2022/03/04 08:41:27;;;;;;;26.65;14.95;;;;;;;;;;5030439;28;20242;-74
2022/03/04 08:43:56;;;;;;;34.78;15.52;;;;;;;;;;5039318;28;20079;-74
2022/03/04 08:46:27;;;;;;;37.63;16.23;;;;;;;;;;5032697;28;20052;-75
2022/03/04 08:49:19;;;;;;;30.05;15.07;;;;;;;;;;5034896;28;20084;-74
2022/03/04 08:51:47;;;;;;;30.38;15.93;;;;;;;;;;5036844;28;20053;-76
2022/03/04 08:54:17;;;;;;;35.53;17.05;;;;;;;;;;5035847;28;20159;-75
2022/03/04 08:56:46;;;;;;;37.92;18.30;;;;;;;;;;5037415;28;20054;-75
2022/03/04 08:59:16;;;;;;;39.28;17.27;;;;;;;;;;5038608;28;20552;-75
2022/03/04 09:01:43;;;;;;;41.70;19.33;;;;;;;;;;5036340;28;20171;-75
2022/03/04 09:04:14;;;;;;;32.67;17.50;;;;;;;;;;5042224;28;20543;-75
2022/03/04 09:06:43;;;;;;;33.67;15.02;;;;;;;;;;5040315;28;20042;-76
2022/03/04 09:09:13;;;;;;;39.35;18.40;;;;;;;;;;5032687;28;20145;-75
2022/03/04 09:11:41;;;;;;;33.92;16.65;;;;;;;;;;5032652;28;20130;-75
2022/03/04 09:14:09;;;;;;;31.38;16.10;;;;;;;;;;5033256;28;20433;-75
2022/03/04 09:16:38;;;;;;;36.97;17.70;;;;;;;;;;5032142;28;20055;-75
2022/03/04 09:19:07;;;;;;;37.92;18.80;;;;;;;;;;5044485;28;20135;-75
2022/03/04 09:21:40;;;;;;;;;;;;;;;;;;5037434;28;20611;-75
2022/03/04 09:24:08;;;;;;;37.33;17.58;;;;;;;;;;5034447;28;19963;-75
2022/03/04 09:26:35;;;;;;;35.90;18.52;;;;;;;;;;5030042;28;20057;-75
2022/03/04 09:29:04;;;;;;;39.15;18.63;;;;;;;;;;5035044;28;20288;-75
2022/03/04 09:31:32;;;;;;;39.75;18.88;;;;;;;;;;5033015;28;20086;-75
2022/03/04 09:34:03;;;;;;;44.97;18.65;;;;;;;;;;5032427;28;20136;-75
2022/03/04 09:36:31;;;;;;;36.75;17.50;;;;;;;;;;5035097;28;21077;-75
2022/03/04 09:38:59;;;;;;;38.08;18.05;;;;;;;;;;5035259;28;20544;-74
2022/03/04 09:41:27;;;;;;;40.63;19.90;;;;;;;;;;5032046;28;20274;-74
2022/03/04 09:43:55;;;;;;;37.28;16.63;;;;;;;;;;5032186;28;20120;-74
2022/03/04 09:46:23;;;;;;;40.40;18.17;;;;;;;;;;5033968;28;20041;-75
2022/03/04 09:48:53;;;;;;;37.97;17.67;;;;;;;;;;5040029;28;20048;-75
2022/03/04 09:51:22;;;;;;;40.33;18.50;;;;;;;;;;5029522;28;20049;-76
2022/03/04 09:53:52;;;;;;;42.08;20.58;;;;;;;;;;5031021;28;20049;-76
2022/03/04 09:56:20;;;;;;;34.10;18.02;;;;;;;;;;5029744;28;20127;-75
2022/03/04 09:58:50;;;;;;;39.67;19.08;;;;;;;;;;5035608;28;20088;-76
2022/03/04 10:01:23;;;;;;;34.15;16.55;;;;;;;;;;5029510;28;20064;-76
2022/03/04 10:03:52;;;;;;;37.80;19.42;;;;;;;;;;5032316;28;20048;-77
2022/03/04 10:06:20;;;;;;;28.92;16.95;;;;;;;;;;5033615;28;20659;-76
2022/03/04 10:08:50;;;;;;;37.30;18.67;;;;;;;;;;5033182;28;20136;-77
2022/03/04 10:11:29;;;;;;;42.53;18.05;;;;;;;;;;5033779;28;20053;-76
2022/03/04 10:14:00;;;;;;;34.58;17.55;;;;;;;;;;5038558;28;20057;-76
2022/03/04 10:16:30;;;;;;;44.00;18.75;;;;;;;;;;5031998;28;20044;-75
2022/03/04 10:19:08;;;;;;;39.75;17.77;;;;;;;;;;5035375;28;20049;-76
2022/03/04 10:21:47;;;;;;;39.38;18.65;;;;;;;;;;5038322;28;20164;-76
2022/03/04 10:24:16;;;;;;;37.38;18.08;;;;;;;;;;5029434;28;20072;-76
2022/03/04 10:26:46;;;;;;;35.88;17.90;;;;;;;;;;5037297;28;20175;-76
2022/03/04 10:29:20;;;;;;;33.25;16.98;;;;;;;;;;5035074;28;20057;-76
2022/03/04 10:32:13;;;;;;;38.70;17.65;;;;;;;;;;5033329;28;20118;-76
2022/03/04 10:34:46;;;;;;;37.30;19.52;;;;;;;;;;5034199;28;20113;-76
2022/03/04 10:37:15;;;;;;;39.88;20.17;;;;;;;;;;5035900;28;20593;-76
2022/03/04 10:40:05;;;;;;;37.60;19.10;;;;;;;;;;5028479;28;20180;-76
2022/03/04 10:42:43;;;;;;;46.05;19.73;;;;;;;;;;5030581;28;20085;-74
2022/03/04 10:45:12;;;;;;;36.97;17.95;;;;;;;;;;5033324;28;20159;-75
2022/03/04 10:47:41;;;;;;;38.50;19.30;;;;;;;;;;5028717;28;20137;-76
2022/03/04 10:50:09;;;;;;;41.72;18.55;;;;;;;;;;5027790;28;20100;-76
2022/03/04 10:52:47;;;;;;;36.67;18.67;;;;;;;;;;5029838;28;20045;-75
2022/03/04 10:55:26;;;;;;;39.42;20.30;;;;;;;;;;5031654;28;20084;-76
2022/03/04 10:57:56;;;;;;;40.00;18.05;;;;;;;;;;5034874;28;20052;-76
2022/03/04 11:00:24;;;;;;;39.55;17.63;;;;;;;;;;5037113;28;20045;-76
2022/03/04 11:02:52;;;;;;;41.42;18.55;;;;;;;;;;5034004;28;20112;-75
2022/03/04 11:05:21;;;;;;;48.97;18.02;;;;;;;;;;5041377;28;20193;-74
2022/03/04 11:07:49;;;;;;;39.33;18.95;;;;;;;;;;5034692;28;20060;-76
2022/03/04 11:10:17;;;;;;;42.70;19.88;;;;;;;;;;5033853;28;20049;-75
2022/03/04 11:12:50;;;;;;;40.70;20.27;;;;;;;;;;5032737;28;20055;-75
2022/03/04 11:15:18;;;;;;;42.00;19.70;;;;;;;;;;5033180;28;20049;-76
2022/03/04 11:17:46;;;;;;;43.47;19.40;;;;;;;;;;5029087;28;20041;-75
2022/03/04 11:20:14;;;;;;;42.72;19.98;;;;;;;;;;5032460;28;20382;-75
2022/03/04 11:22:43;;;;;;;39.85;19.15;;;;;;;;;;5033602;28;20041;-76
2022/03/04 11:25:12;;;;;;;36.03;19.10;;;;;;;;;;5032473;28;20060;-76
2022/03/04 11:27:41;;;;;;;37.13;18.45;;;;;;;;;;5034761;28;20151;-76
2022/03/04 11:30:24;;;;;;;41.22;20.55;;;;;;;;;;5029442;28;20048;-76
2022/03/04 11:33:00;;;;;;;44.83;20.42;;;;;;;;;;5034300;28;20045;-75
2022/03/04 11:35:47;;;;;;;41.88;19.55;;;;;;;;;;5033941;28;20052;-75
2022/03/04 11:39:06;;;;;;;46.55;20.38;;;;;;;;;;5038790;28;20052;-75
2022/03/04 11:41:39;;;;;;;41.55;20.48;;;;;;;;;;5032774;28;20045;-75
2022/03/04 11:44:14;;;;;;;38.50;19.58;;;;;;;;;;5033674;28;20053;-75
2022/03/04 11:46:43;;;;;;;42.88;21.08;;;;;;;;;;5031676;28;20061;-75
2022/03/04 11:49:32;;;;;;;50.97;19.48;;;;;;;;;;5034875;28;20049;-75
2022/03/04 11:52:19;;;;;;;44.22;22.05;;;;;;;;;;5032676;28;20140;-75
2022/03/04 11:55:07;;;;;;;43.15;21.98;;;;;;;;;;5034935;28;20053;-75
2022/03/04 11:57:36;;;;;;;36.65;18.00;;;;;;;;;;5033002;28;20795;-75
2022/03/04 12:00:21;;;;;;;42.72;19.70;;;;;;;;;;5033004;28;20049;-75
2022/03/04 12:02:51;;;;;;;39.05;19.88;;;;;;;;;;5033033;28;20057;-75
2022/03/04 12:05:26;;;;;;;43.22;20.83;;;;;;;;;;5028753;28;20516;-77
2022/03/04 12:08:18;;;;;;;38.65;18.95;;;;;;;;;;5037383;28;20059;-78
2022/03/04 12:10:50;;;;;;;37.75;18.75;;;;;;;;;;5038267;28;20187;-77
2022/03/04 12:13:25;;;;;;;42.70;19.90;;;;;;;;;;5038511;28;20164;-75
2022/03/04 12:15:57;;;;;;;41.95;19.60;;;;;;;;;;5035426;28;20063;-76
2022/03/04 12:18:26;;;;;;;35.42;17.77;;;;;;;;;;5035329;28;20092;-76
2022/03/04 12:21:00;;;;;;;36.50;18.75;;;;;;;;;;5033080;28;20052;-76
2022/03/04 12:23:29;;;;;;;41.47;19.45;;;;;;;;;;5031797;28;20114;-76
2022/03/04 12:26:13;;;;;;;41.92;19.35;;;;;;;;;;5035240;28;20132;-75
2022/03/04 12:28:42;;;;;;;38.40;19.15;;;;;;;;;;5031804;28;20045;-75
2022/03/04 12:31:24;;;;;;;37.55;18.65;;;;;;;;;;5033334;28;20048;-75
2022/03/04 12:33:56;;;;;;;40.35;20.10;;;;;;;;;;5033292;28;20061;-76
2022/03/04 12:36:26;;;;;;;43.95;19.83;;;;;;;;;;5032181;28;20376;-76
2022/03/04 12:38:55;;;;;;;38.55;19.50;;;;;;;;;;5032666;28;20515;-76
2022/03/04 12:41:25;;;;;;;45.50;20.10;;;;;;;;;;5031377;28;20060;-75
2022/03/04 12:43:53;;;;;;;39.25;19.27;;;;;;;;;;5033577;28;20094;-77
2022/03/04 12:46:22;;;;;;;42.22;20.17;;;;;;;;;;5037732;28;20419;-76
2022/03/04 12:48:51;;;;;;;40.90;20.02;;;;;;;;;;5031449;28;20499;-76
2022/03/04 12:51:23;;;;;;;42.10;20.58;;;;;;;;;;5035252;28;20720;-76
2022/03/04 12:53:53;;;;;;;39.63;19.98;;;;;;;;;;5035696;28;20124;-75
2022/03/04 12:56:22;;;;;;;37.17;17.23;;;;;;;;;;5034019;28;20048;-76
2022/03/04 12:58:50;;;;;;;40.47;19.88;;;;;;;;;;5033277;28;20999;-75
2022/03/04 13:01:19;;;;;;;42.55;18.83;;;;;;;;;;5033723;28;20095;-75
2022/03/04 13:03:47;;;;;;;37.17;19.67;;;;;;;;;;5034519;28;20057;-76
2022/03/04 13:06:15;;;;;;;40.03;19.92;;;;;;;;;;5034665;28;20049;-75
2022/03/04 13:08:50;;;;;;;36.83;17.80;;;;;;;;;;5040445;28;20049;-75
2022/03/04 13:11:21;;;;;;;45.20;20.10;;;;;;;;;;5035479;28;20118;-75
2022/03/04 13:13:53;;;;;;;40.55;19.23;;;;;;;;;;5037132;28;20057;-76
2022/03/04 13:16:23;;;;;;;34.95;16.70;;;;;;;;;;5032681;28;20444;-76
2022/03/04 13:18:51;;;;;;;40.58;19.35;;;;;;;;;;5035547;28;20159;-76
2022/03/04 13:21:20;;;;;;;35.65;17.23;;;;;;;;;;5036426;28;20391;-73
2022/03/04 13:23:52;;;;;;;38.58;19.17;;;;;;;;;;5039661;28;20132;-74
2022/03/04 13:26:25;;;;;;;35.45;17.73;;;;;;;;;;5036156;28;20140;-73
2022/03/04 13:28:54;;;;;;;36.03;17.08;;;;;;;;;;5033503;28;20064;-73
2022/03/04 13:31:24;;;;;;;40.47;19.48;;;;;;;;;;5039462;28;20052;-73
2022/03/04 13:34:16;;;;;;;42.45;20.38;;;;;;;;;;5030346;28;20056;-76
2022/03/04 13:36:47;;;;;;;36.97;19.17;;;;;;;;;;5036818;28;20060;-75
2022/03/04 13:39:22;;;;;;;34.80;16.70;;;;;;;;;;5038095;28;20485;-76
2022/03/04 13:42:11;;;;;;;37.25;18.33;;;;;;;;;;5037790;28;20079;-76
2022/03/04 13:44:49;;;;;;;37.03;18.30;;;;;;;;;;5036512;28;20112;-73
2022/03/04 13:47:27;;;;;;;34.90;17.48;;;;;;;;;;5036077;28;20162;-73
2022/03/04 13:49:55;;;;;;;39.10;18.50;;;;;;;;;;5036072;28;20072;-73
2022/03/04 13:52:23;;;;;;;39.53;18.63;;;;;;;;;;5036172;28;20059;-73
2022/03/04 13:54:52;;;;;;;36.08;18.10;;;;;;;;;;5036839;28;20163;-73
2022/03/04 13:57:28;;;;;;;36.17;17.98;;;;;;;;;;5032068;28;20055;-73
2022/03/04 13:59:59;;;;;;;45.30;18.83;;;;;;;;;;5031115;28;20048;-73
2022/03/04 14:02:27;;;;;;;35.75;18.80;;;;;;;;;;5032151;28;20054;-73
2022/03/04 14:04:55;;;;;;;36.15;18.05;;;;;;;;;;5035082;28;20061;-75
2022/03/04 14:07:27;;;;;;;35.47;16.65;;;;;;;;;;5039701;28;20061;-75
2022/03/04 14:09:55;;;;;;;32.47;16.77;;;;;;;;;;5033663;28;20500;-75
2022/03/04 14:12:23;;;;;;;35.55;19.05;;;;;;;;;;5035998;28;20073;-75
2022/03/04 14:14:52;;;;;;;33.10;17.67;;;;;;;;;;5037371;28;20053;-75
2022/03/04 14:17:20;;;;;;;35.80;16.88;;;;;;;;;;5033790;28;20091;-76
2022/03/04 14:19:48;;;;;;;33.50;18.30;;;;;;;;;;5031541;28;20052;-75
2022/03/04 14:22:16;;;;;;;35.25;17.70;;;;;;;;;;5033192;28;20786;-75
2022/03/04 14:24:43;;;;;;;29.42;16.35;;;;;;;;;;5034846;28;20052;-76
2022/03/04 14:27:11;;;;;;;33.67;17.75;;;;;;;;;;5037070;28;20067;-75
2022/03/04 14:29:39;;;;;;;29.42;17.30;;;;;;;;;;5033418;28;20176;-73
2022/03/04 14:32:09;;;;;;;30.80;16.48;;;;;;;;;;5033772;28;20048;-74
2022/03/04 14:35:02;;;;;;;32.60;16.80;;;;;;;;;;5034326;28;20329;-73
2022/03/04 14:37:30;;;;;;;30.38;16.90;;;;;;;;;;5036137;28;20329;-73
2022/03/04 14:39:57;;;;;;;33.22;16.83;;;;;;;;;;5035923;28;20041;-72
2022/03/04 14:42:25;;;;;;;33.45;17.23;;;;;;;;;;5033252;28;20053;-73